Arnett, WV (25007)

11:34 AM EDT on August 04, 2015 (GMT -0400)
Southeast Beckley | | Change Station
CLOSE
Current Station
Personal Weather Station
Location: Beckley, WV
Elevation: 2365 ft
Nearby Weather Stations

Elev 2365 ft 37.76 °N, 81.16 °W | Updated 42 seconds ago

Partly Cloudy
Partly Cloudy
76.8 °F
Feels Like 78 °F
N
3.5
Wind Variable Wind from West
Gusts 3.5 mph

Today
High -- | Low -- °F
--% Chance of Precip.
Yesterday
High -- | Low -- °F
Precip. -- in
6:31 AM 8:31 PM
Waning Gibbous, 77% visible
Pressure 30.10 in
Visibility 10.0 miles
Clouds Mostly Cloudy 2400 ft
Heat Index 78 °F
Dew Point 68 °F
Humidity 75%
Rainfall 0.00 in
Snow Depth Not available.
UV 5 out of 12
Pollen 6.20 out of 12
Air Quality Not available.
Flu Activity Not available.
SPECI KBKW 041529Z AUTO 27008KT 240V300 10SM BKN024 24/18 A3010 RMK AO2 T02390183

More Conditions Fewer Conditions

Pressure 30.10 in
Visibility 10.0 miles
Clouds Mostly Cloudy 2400 ft
Heat Index 78 °F
Dew Point 68 °F
Humidity 75%
Rainfall 0.00 in
Snow Depth Not available.
UV 5 out of 12
Pollen 6.20 out of 12
Air Quality Not available.
Flu Activity Not available.
SPECI KBKW 041529Z AUTO 27008KT 240V300 10SM BKN024 24/18 A3010 RMK AO2 T02390183

More Conditions Fewer Conditions

10-Day Weather Forecast

×

Almanac

Astronomy

Aug. 04, 2015 Rise Set
Actual Time
Civil Twilight
Nautical Twilight
Astronomical Twilight
Moon
Length of Visible Light
Length of Day
Tomorrow will be .
, % of the Moon is Illuminated

Today's Extremes

State Highs State Lows

Community

WunderPhotos

Upload Photos

1,843,905 photos uploaded!

WunderBlogs® & News

Nearby

Air Quality

  Air Quality AQ Index Pollutant
Not available.

Snow Depth

Station Depth Elevation

Earthquake Activity

City Distance Mag. Time & Date
Minimum magnitude displayed is 2.5.

Coastal Water Temperatures

Place Temperature

Stations

Nearby Weather Stations

Station Location Temp. Windchill Dew Point Humidity Wind Precip. Elev Updated Type